sensor_id;sensor_type;location;lat;lon;timestamp;P1;durP1;ratioP1;P2;durP2;ratioP2
2706;SDS011;7819;48.046;7.642;2022-10-16T00:01:45;4.43;;;2.70;;
2706;SDS011;7819;48.046;7.642;2022-10-16T00:04:10;2.43;;;2.23;;
2706;SDS011;7819;48.046;7.642;2022-10-16T00:06:35;3.03;;;2.10;;
2706;SDS011;7819;48.046;7.642;2022-10-16T00:09:00;4.30;;;3.10;;
2706;SDS011;7819;48.046;7.642;2022-10-16T00:11:27;2.97;;;2.73;;
2706;SDS011;7819;48.046;7.642;2022-10-16T00:13:55;3.00;;;2.80;;
2706;SDS011;7819;48.046;7.642;2022-10-16T00:16:21;2.50;;;2.30;;
2706;SDS011;7819;48.046;7.642;2022-10-16T00:18:46;7.50;;;2.93;;
2706;SDS011;7819;48.046;7.642;2022-10-16T00:21:13;3.23;;;2.93;;
2706;SDS011;7819;48.046;7.642;2022-10-16T00:23:38;4.73;;;2.70;;
2706;SDS011;7819;48.046;7.642;2022-10-16T00:26:05;4.03;;;2.83;;
2706;SDS011;7819;48.046;7.642;2022-10-16T00:28:30;3.07;;;2.77;;
2706;SDS011;7819;48.046;7.642;2022-10-16T00:30:56;2.90;;;2.60;;
2706;SDS011;7819;48.046;7.642;2022-10-16T00:33:21;2.80;;;2.27;;
2706;SDS011;7819;48.046;7.642;2022-10-16T00:35:46;2.33;;;2.13;;
2706;SDS011;7819;48.046;7.642;2022-10-16T00:38:12;3.03;;;2.30;;
2706;SDS011;7819;48.046;7.642;2022-10-16T00:40:37;7.23;;;2.93;;
2706;SDS011;7819;48.046;7.642;2022-10-16T00:43:02;2.50;;;2.30;;
2706;SDS011;7819;48.046;7.642;2022-10-16T00:45:27;2.50;;;2.30;;
2706;SDS011;7819;48.046;7.642;2022-10-16T00:47:53;4.60;;;2.63;;
2706;SDS011;7819;48.046;7.642;2022-10-16T00:50:32;2.90;;;2.10;;
2706;SDS011;7819;48.046;7.642;2022-10-16T00:52:58;2.80;;;2.50;;
2706;SDS011;7819;48.046;7.642;2022-10-16T00:55:23;4.30;;;2.87;;
2706;SDS011;7819;48.046;7.642;2022-10-16T00:57:49;2.77;;;2.47;;
2706;SDS011;7819;48.046;7.642;2022-10-16T01:00:16;3.93;;;3.00;;
2706;SDS011;7819;48.046;7.642;2022-10-16T01:02:42;2.43;;;2.23;;
2706;SDS011;7819;48.046;7.642;2022-10-16T01:05:07;2.33;;;2.13;;
2706;SDS011;7819;48.046;7.642;2022-10-16T01:07:49;4.13;;;2.30;;
2706;SDS011;7819;48.046;7.642;2022-10-16T01:15:31;2.88;;;2.58;;
2706;SDS011;7819;48.046;7.642;2022-10-16T01:20:33;3.70;;;2.97;;
2706;SDS011;7819;48.046;7.642;2022-10-16T01:23:03;3.20;;;2.40;;
2706;SDS011;7819;48.046;7.642;2022-10-16T01:25:32;2.90;;;2.60;;
2706;SDS011;7819;48.046;7.642;2022-10-16T01:28:00;3.33;;;2.47;;
2706;SDS011;7819;48.046;7.642;2022-10-16T01:30:27;2.47;;;2.27;;
2706;SDS011;7819;48.046;7.642;2022-10-16T01:35:27;3.13;;;2.80;;
2706;SDS011;7819;48.046;7.642;2022-10-16T01:38:02;2.30;;;2.10;;
2706;SDS011;7819;48.046;7.642;2022-10-16T01:40:28;2.50;;;2.30;;
2706;SDS011;7819;48.046;7.642;2022-10-16T01:42:56;2.43;;;2.10;;
2706;SDS011;7819;48.046;7.642;2022-10-16T01:45:24;2.80;;;2.30;;
2706;SDS011;7819;48.046;7.642;2022-10-16T01:47:49;2.73;;;2.53;;
2706;SDS011;7819;48.046;7.642;2022-10-16T01:50:16;3.30;;;2.53;;
2706;SDS011;7819;48.046;7.642;2022-10-16T01:52:43;2.70;;;2.37;;
2706;SDS011;7819;48.046;7.642;2022-10-16T01:55:10;2.40;;;2.20;;
2706;SDS011;7819;48.046;7.642;2022-10-16T01:57:38;5.47;;;3.10;;
2706;SDS011;7819;48.046;7.642;2022-10-16T02:00:07;1.90;;;1.80;;
2706;SDS011;7819;48.046;7.642;2022-10-16T02:02:33;3.30;;;2.83;;
2706;SDS011;7819;48.046;7.642;2022-10-16T02:05:08;2.63;;;2.30;;
2706;SDS011;7819;48.046;7.642;2022-10-16T02:07:35;3.17;;;2.30;;
2706;SDS011;7819;48.046;7.642;2022-10-16T02:10:01;2.80;;;2.57;;
2706;SDS011;7819;48.046;7.642;2022-10-16T02:12:27;2.77;;;2.30;;
2706;SDS011;7819;48.046;7.642;2022-10-16T02:14:53;3.00;;;2.17;;
2706;SDS011;7819;48.046;7.642;2022-10-16T02:17:18;2.83;;;2.63;;
2706;SDS011;7819;48.046;7.642;2022-10-16T02:19:43;2.67;;;2.27;;
2706;SDS011;7819;48.046;7.642;2022-10-16T02:22:11;3.37;;;3.00;;
2706;SDS011;7819;48.046;7.642;2022-10-16T02:27:53;3.53;;;2.47;;
2706;SDS011;7819;48.046;7.642;2022-10-16T02:32:48;5.40;;;2.10;;
2706;SDS011;7819;48.046;7.642;2022-10-16T02:35:15;2.63;;;2.00;;
2706;SDS011;7819;48.046;7.642;2022-10-16T02:37:41;3.40;;;2.33;;
2706;SDS011;7819;48.046;7.642;2022-10-16T02:40:07;7.10;;;3.13;;
2706;SDS011;7819;48.046;7.642;2022-10-16T02:42:33;2.90;;;2.70;;
2706;SDS011;7819;48.046;7.642;2022-10-16T02:44:58;2.97;;;1.97;;
2706;SDS011;7819;48.046;7.642;2022-10-16T02:47:24;3.83;;;2.87;;
2706;SDS011;7819;48.046;7.642;2022-10-16T02:49:49;3.53;;;2.40;;
2706;SDS011;7819;48.046;7.642;2022-10-16T02:52:14;3.33;;;2.20;;
2706;SDS011;7819;48.046;7.642;2022-10-16T02:54:39;2.80;;;2.60;;
2706;SDS011;7819;48.046;7.642;2022-10-16T02:57:04;3.40;;;2.30;;
2706;SDS011;7819;48.046;7.642;2022-10-16T02:59:30;4.60;;;2.37;;
2706;SDS011;7819;48.046;7.642;2022-10-16T03:01:55;4.20;;;2.80;;
2706;SDS011;7819;48.046;7.642;2022-10-16T03:04:20;4.83;;;2.20;;
2706;SDS011;7819;48.046;7.642;2022-10-16T03:06:45;3.13;;;2.30;;
2706;SDS011;7819;48.046;7.642;2022-10-16T03:09:10;2.20;;;2.00;;
2706;SDS011;7819;48.046;7.642;2022-10-16T03:11:35;2.70;;;2.50;;
2706;SDS011;7819;48.046;7.642;2022-10-16T03:14:01;4.33;;;2.77;;
2706;SDS011;7819;48.046;7.642;2022-10-16T03:16:26;2.47;;;2.27;;
2706;SDS011;7819;48.046;7.642;2022-10-16T03:18:51;4.63;;;3.00;;
2706;SDS011;7819;48.046;7.642;2022-10-16T03:21:16;2.50;;;2.30;;
2706;SDS011;7819;48.046;7.642;2022-10-16T03:23:41;4.23;;;2.40;;
2706;SDS011;7819;48.046;7.642;2022-10-16T03:26:07;2.77;;;2.57;;
2706;SDS011;7819;48.046;7.642;2022-10-16T03:28:32;3.63;;;2.70;;
2706;SDS011;7819;48.046;7.642;2022-10-16T03:30:57;3.17;;;2.50;;
2706;SDS011;7819;48.046;7.642;2022-10-16T03:33:22;3.03;;;2.73;;
2706;SDS011;7819;48.046;7.642;2022-10-16T03:35:51;2.73;;;2.50;;
2706;SDS011;7819;48.046;7.642;2022-10-16T03:38:17;3.33;;;2.73;;
2706;SDS011;7819;48.046;7.642;2022-10-16T03:40:43;5.80;;;2.53;;
2706;SDS011;7819;48.046;7.642;2022-10-16T03:43:08;3.20;;;2.90;;
2706;SDS011;7819;48.046;7.642;2022-10-16T03:45:33;2.63;;;2.43;;
2706;SDS011;7819;48.046;7.642;2022-10-16T03:47:58;4.50;;;2.40;;
2706;SDS011;7819;48.046;7.642;2022-10-16T03:50:23;2.80;;;2.60;;
2706;SDS011;7819;48.046;7.642;2022-10-16T03:52:48;2.70;;;2.50;;
2706;SDS011;7819;48.046;7.642;2022-10-16T03:55:14;4.03;;;2.60;;
2706;SDS011;7819;48.046;7.642;2022-10-16T03:57:39;2.83;;;2.63;;
2706;SDS011;7819;48.046;7.642;2022-10-16T04:00:04;3.67;;;3.37;;
2706;SDS011;7819;48.046;7.642;2022-10-16T04:02:30;7.17;;;2.50;;
2706;SDS011;7819;48.046;7.642;2022-10-16T04:04:55;4.27;;;2.80;;
2706;SDS011;7819;48.046;7.642;2022-10-16T04:07:20;2.70;;;2.50;;
2706;SDS011;7819;48.046;7.642;2022-10-16T04:09:45;3.63;;;3.13;;
2706;SDS011;7819;48.046;7.642;2022-10-16T04:12:10;2.83;;;2.63;;
2706;SDS011;7819;48.046;7.642;2022-10-16T04:14:36;3.97;;;2.90;;
2706;SDS011;7819;48.046;7.642;2022-10-16T04:17:01;2.80;;;2.60;;
2706;SDS011;7819;48.046;7.642;2022-10-16T04:19:26;2.87;;;2.57;;
2706;SDS011;7819;48.046;7.642;2022-10-16T04:21:51;3.50;;;2.67;;
2706;SDS011;7819;48.046;7.642;2022-10-16T04:24:16;2.60;;;2.03;;
2706;SDS011;7819;48.046;7.642;2022-10-16T04:26:42;3.40;;;3.10;;
2706;SDS011;7819;48.046;7.642;2022-10-16T04:29:07;4.23;;;2.97;;
2706;SDS011;7819;48.046;7.642;2022-10-16T04:31:32;4.80;;;3.00;;
2706;SDS011;7819;48.046;7.642;2022-10-16T04:33:58;3.00;;;2.37;;
2706;SDS011;7819;48.046;7.642;2022-10-16T04:36:23;2.17;;;1.97;;
2706;SDS011;7819;48.046;7.642;2022-10-16T04:38:48;5.77;;;2.30;;
2706;SDS011;7819;48.046;7.642;2022-10-16T04:41:13;4.00;;;3.70;;
2706;SDS011;7819;48.046;7.642;2022-10-16T04:43:38;2.93;;;2.57;;
2706;SDS011;7819;48.046;7.642;2022-10-16T04:46:04;13.50;;;3.70;;
2706;SDS011;7819;48.046;7.642;2022-10-16T04:48:30;3.63;;;2.67;;
2706;SDS011;7819;48.046;7.642;2022-10-16T04:50:55;5.40;;;2.63;;
2706;SDS011;7819;48.046;7.642;2022-10-16T04:53:20;2.77;;;2.53;;
2706;SDS011;7819;48.046;7.642;2022-10-16T04:55:45;2.20;;;2.00;;
2706;SDS011;7819;48.046;7.642;2022-10-16T04:58:11;3.77;;;2.43;;
2706;SDS011;7819;48.046;7.642;2022-10-16T05:00:36;2.67;;;2.17;;
2706;SDS011;7819;48.046;7.642;2022-10-16T05:03:01;2.40;;;2.07;;
2706;SDS011;7819;48.046;7.642;2022-10-16T05:05:27;3.50;;;3.20;;
2706;SDS011;7819;48.046;7.642;2022-10-16T05:07:52;4.07;;;2.70;;
2706;SDS011;7819;48.046;7.642;2022-10-16T05:10:18;2.67;;;2.40;;
2706;SDS011;7819;48.046;7.642;2022-10-16T05:12:43;3.23;;;3.00;;
2706;SDS011;7819;48.046;7.642;2022-10-16T05:15:09;3.63;;;3.00;;
2706;SDS011;7819;48.046;7.642;2022-10-16T05:17:34;2.83;;;2.60;;
2706;SDS011;7819;48.046;7.642;2022-10-16T05:19:59;5.00;;;3.83;;
2706;SDS011;7819;48.046;7.642;2022-10-16T05:22:24;4.70;;;4.30;;
2706;SDS011;7819;48.046;7.642;2022-10-16T05:24:49;4.27;;;3.00;;
2706;SDS011;7819;48.046;7.642;2022-10-16T05:27:15;3.27;;;3.00;;
2706;SDS011;7819;48.046;7.642;2022-10-16T05:29:47;2.97;;;2.77;;
2706;SDS011;7819;48.046;7.642;2022-10-16T05:32:13;3.20;;;2.93;;
2706;SDS011;7819;48.046;7.642;2022-10-16T05:34:38;7.83;;;3.17;;
2706;SDS011;7819;48.046;7.642;2022-10-16T05:37:03;3.43;;;3.13;;
2706;SDS011;7819;48.046;7.642;2022-10-16T05:39:28;2.70;;;2.50;;
2706;SDS011;7819;48.046;7.642;2022-10-16T05:41:54;4.63;;;3.20;;
2706;SDS011;7819;48.046;7.642;2022-10-16T05:44:19;10.90;;;3.47;;
2706;SDS011;7819;48.046;7.642;2022-10-16T05:46:45;3.10;;;2.67;;
2706;SDS011;7819;48.046;7.642;2022-10-16T05:49:11;2.73;;;2.47;;
2706;SDS011;7819;48.046;7.642;2022-10-16T05:51:36;3.23;;;2.53;;
2706;SDS011;7819;48.046;7.642;2022-10-16T05:54:01;4.20;;;3.70;;
2706;SDS011;7819;48.046;7.642;2022-10-16T05:56:26;3.23;;;2.70;;
2706;SDS011;7819;48.046;7.642;2022-10-16T05:58:52;2.67;;;2.40;;
2706;SDS011;7819;48.046;7.642;2022-10-16T06:01:17;2.87;;;2.50;;
2706;SDS011;7819;48.046;7.642;2022-10-16T06:03:43;4.77;;;2.20;;
2706;SDS011;7819;48.046;7.642;2022-10-16T06:06:12;3.03;;;2.63;;
2706;SDS011;7819;48.046;7.642;2022-10-16T06:08:38;3.13;;;2.83;;
2706;SDS011;7819;48.046;7.642;2022-10-16T06:11:05;2.80;;;2.43;;
2706;SDS011;7819;48.046;7.642;2022-10-16T06:13:30;5.50;;;2.27;;
2706;SDS011;7819;48.046;7.642;2022-10-16T06:15:56;3.60;;;2.97;;
2706;SDS011;7819;48.046;7.642;2022-10-16T06:18:21;2.97;;;2.67;;
2706;SDS011;7819;48.046;7.642;2022-10-16T06:20:47;2.10;;;1.90;;
2706;SDS011;7819;48.046;7.642;2022-10-16T06:23:12;3.10;;;2.43;;
2706;SDS011;7819;48.046;7.642;2022-10-16T06:25:37;2.87;;;2.30;;
2706;SDS011;7819;48.046;7.642;2022-10-16T06:28:02;2.90;;;2.70;;
2706;SDS011;7819;48.046;7.642;2022-10-16T06:30:27;3.27;;;2.93;;
2706;SDS011;7819;48.046;7.642;2022-10-16T06:32:53;2.40;;;2.20;;
2706;SDS011;7819;48.046;7.642;2022-10-16T06:35:18;2.87;;;2.33;;
2706;SDS011;7819;48.046;7.642;2022-10-16T06:37:43;5.10;;;3.30;;
2706;SDS011;7819;48.046;7.642;2022-10-16T06:40:08;3.43;;;2.47;;
2706;SDS011;7819;48.046;7.642;2022-10-16T06:42:33;3.03;;;2.30;;
2706;SDS011;7819;48.046;7.642;2022-10-16T06:44:59;3.53;;;2.50;;
2706;SDS011;7819;48.046;7.642;2022-10-16T06:47:24;9.03;;;3.27;;
2706;SDS011;7819;48.046;7.642;2022-10-16T06:49:49;2.40;;;2.20;;
2706;SDS011;7819;48.046;7.642;2022-10-16T06:52:14;4.43;;;2.87;;
2706;SDS011;7819;48.046;7.642;2022-10-16T06:54:39;4.83;;;2.53;;
2706;SDS011;7819;48.046;7.642;2022-10-16T06:57:04;4.13;;;2.67;;
2706;SDS011;7819;48.046;7.642;2022-10-16T06:59:30;6.00;;;2.77;;
2706;SDS011;7819;48.046;7.642;2022-10-16T07:01:55;2.70;;;2.50;;
2706;SDS011;7819;48.046;7.642;2022-10-16T07:04:20;4.10;;;2.40;;
2706;SDS011;7819;48.046;7.642;2022-10-16T07:06:45;2.87;;;2.10;;
2706;SDS011;7819;48.046;7.642;2022-10-16T07:09:10;2.67;;;2.10;;
2706;SDS011;7819;48.046;7.642;2022-10-16T07:11:36;2.87;;;2.60;;
2706;SDS011;7819;48.046;7.642;2022-10-16T07:14:02;3.73;;;3.43;;
2706;SDS011;7819;48.046;7.642;2022-10-16T07:16:28;3.43;;;2.07;;
2706;SDS011;7819;48.046;7.642;2022-10-16T07:18:54;2.40;;;2.20;;
2706;SDS011;7819;48.046;7.642;2022-10-16T07:21:24;4.23;;;2.83;;
2706;SDS011;7819;48.046;7.642;2022-10-16T07:23:53;3.17;;;2.90;;
2706;SDS011;7819;48.046;7.642;2022-10-16T07:26:19;3.00;;;2.70;;
2706;SDS011;7819;48.046;7.642;2022-10-16T07:28:44;2.70;;;2.50;;
2706;SDS011;7819;48.046;7.642;2022-10-16T07:31:11;3.77;;;2.40;;
2706;SDS011;7819;48.046;7.642;2022-10-16T07:33:36;3.90;;;3.60;;
2706;SDS011;7819;48.046;7.642;2022-10-16T07:36:02;3.50;;;2.20;;
2706;SDS011;7819;48.046;7.642;2022-10-16T07:38:28;4.47;;;2.80;;
2706;SDS011;7819;48.046;7.642;2022-10-16T07:41:03;4.23;;;3.13;;
2706;SDS011;7819;48.046;7.642;2022-10-16T07:43:28;4.50;;;2.27;;
2706;SDS011;7819;48.046;7.642;2022-10-16T07:45:54;5.27;;;2.27;;
2706;SDS011;7819;48.046;7.642;2022-10-16T07:48:20;3.50;;;3.00;;
2706;SDS011;7819;48.046;7.642;2022-10-16T07:50:45;2.60;;;2.40;;
2706;SDS011;7819;48.046;7.642;2022-10-16T07:53:11;2.53;;;2.33;;
2706;SDS011;7819;48.046;7.642;2022-10-16T07:55:36;3.17;;;2.77;;
2706;SDS011;7819;48.046;7.642;2022-10-16T07:58:01;2.97;;;2.60;;
2706;SDS011;7819;48.046;7.642;2022-10-16T08:00:27;3.17;;;2.57;;
2706;SDS011;7819;48.046;7.642;2022-10-16T08:02:52;2.57;;;2.37;;
2706;SDS011;7819;48.046;7.642;2022-10-16T08:05:17;6.10;;;2.00;;
2706;SDS011;7819;48.046;7.642;2022-10-16T08:07:42;4.17;;;2.50;;
2706;SDS011;7819;48.046;7.642;2022-10-16T08:10:11;3.07;;;2.07;;
2706;SDS011;7819;48.046;7.642;2022-10-16T08:12:40;3.57;;;2.67;;
2706;SDS011;7819;48.046;7.642;2022-10-16T08:15:06;3.93;;;2.47;;
2706;SDS011;7819;48.046;7.642;2022-10-16T08:17:31;5.70;;;2.83;;
2706;SDS011;7819;48.046;7.642;2022-10-16T08:19:56;3.30;;;3.00;;
2706;SDS011;7819;48.046;7.642;2022-10-16T08:22:21;5.90;;;2.70;;
2706;SDS011;7819;48.046;7.642;2022-10-16T08:24:46;3.83;;;3.07;;
2706;SDS011;7819;48.046;7.642;2022-10-16T08:27:12;2.77;;;2.47;;
2706;SDS011;7819;48.046;7.642;2022-10-16T08:29:37;4.43;;;3.77;;
2706;SDS011;7819;48.046;7.642;2022-10-16T08:32:03;3.97;;;2.27;;
2706;SDS011;7819;48.046;7.642;2022-10-16T08:34:29;2.60;;;2.37;;
2706;SDS011;7819;48.046;7.642;2022-10-16T08:36:54;3.03;;;2.73;;
2706;SDS011;7819;48.046;7.642;2022-10-16T08:39:20;3.57;;;2.27;;
2706;SDS011;7819;48.046;7.642;2022-10-16T08:44:39;2.93;;;2.37;;
2706;SDS011;7819;48.046;7.642;2022-10-16T08:49:36;3.77;;;2.83;;
2706;SDS011;7819;48.046;7.642;2022-10-16T08:52:02;3.07;;;2.17;;
2706;SDS011;7819;48.046;7.642;2022-10-16T08:54:34;2.90;;;2.70;;
2706;SDS011;7819;48.046;7.642;2022-10-16T08:57:09;2.90;;;2.23;;
2706;SDS011;7819;48.046;7.642;2022-10-16T08:59:36;3.07;;;2.30;;
2706;SDS011;7819;48.046;7.642;2022-10-16T09:02:01;2.60;;;2.10;;
2706;SDS011;7819;48.046;7.642;2022-10-16T09:06:55;2.40;;;2.20;;
2706;SDS011;7819;48.046;7.642;2022-10-16T09:11:53;3.47;;;2.63;;
2706;SDS011;7819;48.046;7.642;2022-10-16T09:17:04;4.90;;;2.90;;
2706;SDS011;7819;48.046;7.642;2022-10-16T09:19:36;6.67;;;2.20;;
2706;SDS011;7819;48.046;7.642;2022-10-16T09:22:09;3.13;;;2.30;;
2706;SDS011;7819;48.046;7.642;2022-10-16T09:24:35;2.90;;;2.67;;
2706;SDS011;7819;48.046;7.642;2022-10-16T09:27:01;2.33;;;2.10;;
2706;SDS011;7819;48.046;7.642;2022-10-16T09:29:26;1.87;;;1.70;;
2706;SDS011;7819;48.046;7.642;2022-10-16T09:31:52;3.17;;;2.30;;
2706;SDS011;7819;48.046;7.642;2022-10-16T09:34:36;3.20;;;2.50;;
2706;SDS011;7819;48.046;7.642;2022-10-16T09:37:05;2.20;;;2.00;;
2706;SDS011;7819;48.046;7.642;2022-10-16T09:39:43;2.90;;;1.80;;
2706;SDS011;7819;48.046;7.642;2022-10-16T09:42:10;3.80;;;2.00;;
2706;SDS011;7819;48.046;7.642;2022-10-16T09:44:35;2.93;;;1.70;;
2706;SDS011;7819;48.046;7.642;2022-10-16T09:49:56;3.93;;;1.97;;
2706;SDS011;7819;48.046;7.642;2022-10-16T09:52:23;3.07;;;1.43;;
2706;SDS011;7819;48.046;7.642;2022-10-16T09:54:49;2.00;;;1.50;;
2706;SDS011;7819;48.046;7.642;2022-10-16T09:57:14;3.33;;;1.97;;
2706;SDS011;7819;48.046;7.642;2022-10-16T09:59:46;3.03;;;2.07;;
2706;SDS011;7819;48.046;7.642;2022-10-16T10:02:12;1.80;;;1.40;;
2706;SDS011;7819;48.046;7.642;2022-10-16T10:04:39;1.60;;;1.40;;
2706;SDS011;7819;48.046;7.642;2022-10-16T10:07:05;2.07;;;1.87;;
2706;SDS011;7819;48.046;7.642;2022-10-16T10:09:39;1.83;;;1.40;;
2706;SDS011;7819;48.046;7.642;2022-10-16T10:12:40;2.80;;;1.50;;
2706;SDS011;7819;48.046;7.642;2022-10-16T10:15:05;2.23;;;1.33;;
2706;SDS011;7819;48.046;7.642;2022-10-16T10:17:31;1.87;;;1.10;;
2706;SDS011;7819;48.046;7.642;2022-10-16T10:19:58;1.63;;;1.53;;
2706;SDS011;7819;48.046;7.642;2022-10-16T10:24:55;1.90;;;1.33;;
2706;SDS011;7819;48.046;7.642;2022-10-16T10:27:20;2.73;;;1.40;;
2706;SDS011;7819;48.046;7.642;2022-10-16T10:32:33;2.80;;;2.00;;
2706;SDS011;7819;48.046;7.642;2022-10-16T10:35:25;3.20;;;1.50;;
2706;SDS011;7819;48.046;7.642;2022-10-16T10:40:24;4.30;;;1.60;;
2706;SDS011;7819;48.046;7.642;2022-10-16T10:42:58;1.80;;;1.20;;
2706;SDS011;7819;48.046;7.642;2022-10-16T10:50:23;2.03;;;1.17;;
2706;SDS011;7819;48.046;7.642;2022-10-16T10:52:53;2.10;;;1.43;;
2706;SDS011;7819;48.046;7.642;2022-10-16T10:58:10;2.87;;;2.27;;
2706;SDS011;7819;48.046;7.642;2022-10-16T11:03:27;2.07;;;1.30;;
2706;SDS011;7819;48.046;7.642;2022-10-16T11:05:56;4.53;;;2.00;;
2706;SDS011;7819;48.046;7.642;2022-10-16T11:08:27;1.83;;;1.50;;
2706;SDS011;7819;48.046;7.642;2022-10-16T11:13:43;2.53;;;1.30;;
2706;SDS011;7819;48.046;7.642;2022-10-16T11:16:42;2.03;;;1.60;;
2706;SDS011;7819;48.046;7.642;2022-10-16T11:21:46;3.67;;;1.47;;
2706;SDS011;7819;48.046;7.642;2022-10-16T11:24:27;2.20;;;1.17;;
2706;SDS011;7819;48.046;7.642;2022-10-16T11:26:55;1.33;;;1.10;;
2706;SDS011;7819;48.046;7.642;2022-10-16T11:29:23;5.53;;;1.47;;
2706;SDS011;7819;48.046;7.642;2022-10-16T11:31:51;1.83;;;1.70;;
2706;SDS011;7819;48.046;7.642;2022-10-16T11:34:32;3.50;;;1.60;;
2706;SDS011;7819;48.046;7.642;2022-10-16T11:37:05;2.60;;;1.00;;
2706;SDS011;7819;48.046;7.642;2022-10-16T11:39:33;2.07;;;1.30;;
2706;SDS011;7819;48.046;7.642;2022-10-16T11:42:01;2.30;;;0.90;;
2706;SDS011;7819;48.046;7.642;2022-10-16T11:47:19;1.30;;;0.90;;
2706;SDS011;7819;48.046;7.642;2022-10-16T11:49:38;1.40;;;1.20;;
2706;SDS011;7819;48.046;7.642;2022-10-16T11:57:09;1.97;;;1.50;;
2706;SDS011;7819;48.046;7.642;2022-10-16T11:59:38;1.23;;;1.13;;
2706;SDS011;7819;48.046;7.642;2022-10-16T12:04:33;2.60;;;1.25;;
2706;SDS011;7819;48.046;7.642;2022-10-16T12:07:05;1.60;;;1.13;;
2706;SDS011;7819;48.046;7.642;2022-10-16T12:09:31;1.60;;;1.00;;
2706;SDS011;7819;48.046;7.642;2022-10-16T12:11:57;1.10;;;0.83;;
2706;SDS011;7819;48.046;7.642;2022-10-16T12:16:55;1.97;;;0.93;;
2706;SDS011;7819;48.046;7.642;2022-10-16T12:19:21;1.93;;;1.53;;
2706;SDS011;7819;48.046;7.642;2022-10-16T12:21:46;1.67;;;1.10;;
2706;SDS011;7819;48.046;7.642;2022-10-16T12:26:56;1.30;;;1.07;;
2706;SDS011;7819;48.046;7.642;2022-10-16T12:29:30;1.87;;;0.93;;
2706;SDS011;7819;48.046;7.642;2022-10-16T12:31:57;1.83;;;1.30;;
2706;SDS011;7819;48.046;7.642;2022-10-16T12:34:29;3.73;;;1.10;;
2706;SDS011;7819;48.046;7.642;2022-10-16T12:37:07;1.57;;;1.00;;
2706;SDS011;7819;48.046;7.642;2022-10-16T12:39:33;1.40;;;1.23;;
2706;SDS011;7819;48.046;7.642;2022-10-16T12:42:05;3.47;;;1.30;;
2706;SDS011;7819;48.046;7.642;2022-10-16T12:44:34;3.03;;;0.97;;
2706;SDS011;7819;48.046;7.642;2022-10-16T12:46:59;1.60;;;1.20;;
2706;SDS011;7819;48.046;7.642;2022-10-16T12:51:53;3.37;;;1.47;;
2706;SDS011;7819;48.046;7.642;2022-10-16T12:54:29;1.60;;;1.10;;
2706;SDS011;7819;48.046;7.642;2022-10-16T13:10:00;1.73;;;1.40;;
2706;SDS011;7819;48.046;7.642;2022-10-16T13:15:15;2.20;;;1.20;;
2706;SDS011;7819;48.046;7.642;2022-10-16T13:20:16;1.87;;;1.37;;
2706;SDS011;7819;48.046;7.642;2022-10-16T13:25:36;2.63;;;1.00;;
2706;SDS011;7819;48.046;7.642;2022-10-16T13:28:08;2.63;;;1.30;;
2706;SDS011;7819;48.046;7.642;2022-10-16T13:30:40;3.00;;;1.87;;
2706;SDS011;7819;48.046;7.642;2022-10-16T13:35:34;3.10;;;1.20;;
2706;SDS011;7819;48.046;7.642;2022-10-16T13:40:34;3.57;;;1.30;;
2706;SDS011;7819;48.046;7.642;2022-10-16T13:42:59;4.37;;;1.13;;
2706;SDS011;7819;48.046;7.642;2022-10-16T13:45:25;1.60;;;1.20;;
2706;SDS011;7819;48.046;7.642;2022-10-16T13:48:01;1.80;;;1.03;;
2706;SDS011;7819;48.046;7.642;2022-10-16T13:50:26;2.10;;;0.90;;
2706;SDS011;7819;48.046;7.642;2022-10-16T13:52:51;2.53;;;1.00;;
2706;SDS011;7819;48.046;7.642;2022-10-16T13:55:17;1.90;;;1.07;;
2706;SDS011;7819;48.046;7.642;2022-10-16T13:57:43;2.40;;;0.70;;
2706;SDS011;7819;48.046;7.642;2022-10-16T14:00:18;1.47;;;0.80;;
2706;SDS011;7819;48.046;7.642;2022-10-16T14:02:44;2.30;;;1.27;;
2706;SDS011;7819;48.046;7.642;2022-10-16T14:05:09;1.93;;;1.00;;
2706;SDS011;7819;48.046;7.642;2022-10-16T14:07:35;2.30;;;1.80;;
2706;SDS011;7819;48.046;7.642;2022-10-16T14:10:18;1.50;;;0.80;;
2706;SDS011;7819;48.046;7.642;2022-10-16T14:12:45;1.73;;;0.90;;
2706;SDS011;7819;48.046;7.642;2022-10-16T14:15:16;2.87;;;1.00;;
2706;SDS011;7819;48.046;7.642;2022-10-16T14:17:43;2.13;;;1.07;;
2706;SDS011;7819;48.046;7.642;2022-10-16T14:20:12;1.33;;;0.83;;
2706;SDS011;7819;48.046;7.642;2022-10-16T14:22:39;1.00;;;0.70;;
2706;SDS011;7819;48.046;7.642;2022-10-16T14:27:55;3.53;;;1.10;;
2706;SDS011;7819;48.046;7.642;2022-10-16T14:30:21;1.77;;;1.00;;
2706;SDS011;7819;48.046;7.642;2022-10-16T14:32:57;1.20;;;1.00;;
2706;SDS011;7819;48.046;7.642;2022-10-16T14:35:26;1.30;;;0.97;;
2706;SDS011;7819;48.046;7.642;2022-10-16T14:37:52;2.20;;;0.97;;
2706;SDS011;7819;48.046;7.642;2022-10-16T14:40:17;2.03;;;1.17;;
2706;SDS011;7819;48.046;7.642;2022-10-16T14:42:42;2.80;;;1.20;;
2706;SDS011;7819;48.046;7.642;2022-10-16T14:45:09;1.90;;;1.20;;
2706;SDS011;7819;48.046;7.642;2022-10-16T14:47:35;3.00;;;1.13;;
2706;SDS011;7819;48.046;7.642;2022-10-16T14:50:02;2.50;;;1.17;;
2706;SDS011;7819;48.046;7.642;2022-10-16T14:52:27;2.60;;;1.10;;
2706;SDS011;7819;48.046;7.642;2022-10-16T14:54:52;2.70;;;1.37;;
2706;SDS011;7819;48.046;7.642;2022-10-16T14:57:20;3.10;;;1.10;;
2706;SDS011;7819;48.046;7.642;2022-10-16T14:59:47;1.07;;;0.70;;
2706;SDS011;7819;48.046;7.642;2022-10-16T15:02:32;2.20;;;1.03;;
2706;SDS011;7819;48.046;7.642;2022-10-16T15:04:58;1.30;;;0.90;;
2706;SDS011;7819;48.046;7.642;2022-10-16T15:07:27;2.47;;;1.60;;
2706;SDS011;7819;48.046;7.642;2022-10-16T15:09:52;7.20;;;2.60;;
2706;SDS011;7819;48.046;7.642;2022-10-16T15:12:17;1.30;;;1.00;;
2706;SDS011;7819;48.046;7.642;2022-10-16T15:14:43;1.77;;;0.90;;
2706;SDS011;7819;48.046;7.642;2022-10-16T15:17:09;1.80;;;1.00;;
2706;SDS011;7819;48.046;7.642;2022-10-16T15:19:34;1.73;;;1.03;;
2706;SDS011;7819;48.046;7.642;2022-10-16T15:22:00;3.07;;;1.40;;
2706;SDS011;7819;48.046;7.642;2022-10-16T15:24:25;2.07;;;1.10;;
2706;SDS011;7819;48.046;7.642;2022-10-16T15:26:50;4.00;;;1.20;;
2706;SDS011;7819;48.046;7.642;2022-10-16T15:29:15;1.43;;;1.00;;
2706;SDS011;7819;48.046;7.642;2022-10-16T15:31:40;1.13;;;0.93;;
2706;SDS011;7819;48.046;7.642;2022-10-16T15:34:09;1.30;;;0.90;;
2706;SDS011;7819;48.046;7.642;2022-10-16T15:36:35;2.17;;;0.90;;
2706;SDS011;7819;48.046;7.642;2022-10-16T15:39:19;1.23;;;1.00;;
2706;SDS011;7819;48.046;7.642;2022-10-16T15:41:45;2.50;;;1.03;;
2706;SDS011;7819;48.046;7.642;2022-10-16T15:44:15;4.03;;;1.10;;
2706;SDS011;7819;48.046;7.642;2022-10-16T15:46:40;2.90;;;1.10;;
2706;SDS011;7819;48.046;7.642;2022-10-16T15:49:05;1.60;;;0.93;;
2706;SDS011;7819;48.046;7.642;2022-10-16T15:51:31;1.53;;;0.90;;
2706;SDS011;7819;48.046;7.642;2022-10-16T15:53:58;2.37;;;1.17;;
2706;SDS011;7819;48.046;7.642;2022-10-16T15:56:23;4.33;;;1.67;;
2706;SDS011;7819;48.046;7.642;2022-10-16T15:58:50;2.90;;;2.10;;
2706;SDS011;7819;48.046;7.642;2022-10-16T16:01:16;2.47;;;1.90;;
2706;SDS011;7819;48.046;7.642;2022-10-16T16:03:41;3.17;;;2.43;;
2706;SDS011;7819;48.046;7.642;2022-10-16T16:06:07;5.57;;;2.50;;
2706;SDS011;7819;48.046;7.642;2022-10-16T16:08:33;6.60;;;3.40;;
2706;SDS011;7819;48.046;7.642;2022-10-16T16:10:59;2.83;;;1.90;;
2706;SDS011;7819;48.046;7.642;2022-10-16T16:13:25;2.53;;;2.00;;
2706;SDS011;7819;48.046;7.642;2022-10-16T16:15:50;2.83;;;2.07;;
2706;SDS011;7819;48.046;7.642;2022-10-16T16:18:15;7.40;;;6.80;;
2706;SDS011;7819;48.046;7.642;2022-10-16T16:20:40;3.10;;;2.77;;
2706;SDS011;7819;48.046;7.642;2022-10-16T16:23:05;2.30;;;1.80;;
2706;SDS011;7819;48.046;7.642;2022-10-16T16:25:31;2.17;;;1.50;;
2706;SDS011;7819;48.046;7.642;2022-10-16T16:27:56;2.50;;;1.97;;
2706;SDS011;7819;48.046;7.642;2022-10-16T16:30:21;2.30;;;1.60;;
2706;SDS011;7819;48.046;7.642;2022-10-16T16:32:46;2.70;;;1.40;;
2706;SDS011;7819;48.046;7.642;2022-10-16T16:35:12;4.93;;;2.27;;
2706;SDS011;7819;48.046;7.642;2022-10-16T16:37:37;3.33;;;1.80;;
2706;SDS011;7819;48.046;7.642;2022-10-16T16:40:02;2.27;;;1.30;;
2706;SDS011;7819;48.046;7.642;2022-10-16T16:42:27;1.63;;;1.10;;
2706;SDS011;7819;48.046;7.642;2022-10-16T16:44:53;2.10;;;1.00;;
2706;SDS011;7819;48.046;7.642;2022-10-16T16:47:18;1.80;;;1.37;;
2706;SDS011;7819;48.046;7.642;2022-10-16T16:49:43;2.30;;;1.33;;
2706;SDS011;7819;48.046;7.642;2022-10-16T16:52:08;2.90;;;1.73;;
2706;SDS011;7819;48.046;7.642;2022-10-16T16:54:34;2.70;;;1.53;;
2706;SDS011;7819;48.046;7.642;2022-10-16T16:56:59;2.87;;;1.40;;